Dortmund Airport EDLW

Flugplatz Daten

Name: Dortmund Airport

Ident: EDLW

Lat: 51,5182991

Long: 7,612239838

Platzhöhe: 425 ft

IataCode: DTM

City: Dortmund

Metar

2021/10/25 23:20
EDLW 252320Z AUTO 22009KT 9999 // OVC010/// 11/10 Q1018

Taf

2021/10/25 21:32
TAF EDLW 252120Z 2521/2618 CNL
Gewünschte Webcam nicht vorhanden? Dann fügen Sie eine hinzu. Sie wird dann so schnell wie möglich freigeschaltet
Url: Title: